Beason, Illinois
Current Conditions -  °F | °C
As of 12:15 AM on Sunday 23 Nov 2014 (Local Time) from KAAA Reporting Station
Scattered Clouds Scattered Clouds  
Wind Chill: 50°   Ceiling: Unl
Heat Index: 50°   Visibility: 10mi
Dew Point: 47°   Wind: 8mph
Humidity: 90%   Direction: 170°S
Pressure: 29.85"   Gusts: NA
Location:  40.14°N, 89.19°W
Report Text: KAAA 230615Z AUTO 17007KT 10SM SCT070 10/08 A2985 RMK AO2 T01000084
Loading
Personal Weather Stations






























Interactive Weather Map New forecast layout! Learn more

10-Day Weather Forecast

Advertisements
Track Severe Weather on mobile